createdAt,value
2017-11-16T00:00:58.556Z,19.30
2017-11-16T00:03:27.828Z,19.48
2017-11-16T00:05:57.073Z,19.80
2017-11-16T00:08:26.311Z,18.58
2017-11-16T00:10:55.575Z,19.15
2017-11-16T00:13:24.839Z,19.12
2017-11-16T00:15:54.077Z,18.23
2017-11-16T00:18:23.365Z,18.80
2017-11-16T00:20:52.608Z,19.10
2017-11-16T00:23:22.140Z,19.42
2017-11-16T00:25:51.340Z,21.17
2017-11-16T00:28:20.654Z,20.20
2017-11-16T00:30:49.937Z,19.70
2017-11-16T00:33:19.216Z,19.37
2017-11-16T00:35:48.453Z,21.17
2017-11-16T00:38:17.735Z,19.02
2017-11-16T00:40:46.963Z,20.00
2017-11-16T00:43:16.208Z,18.42
2017-11-16T00:45:45.604Z,19.00
2017-11-16T00:48:14.843Z,19.75
2017-11-16T00:50:44.872Z,21.85
2017-11-16T00:53:14.872Z,22.05
2017-11-16T00:55:44.198Z,21.67
2017-11-16T00:58:13.444Z,22.10
2017-11-16T01:00:42.692Z,26.37
2017-11-16T01:03:12.746Z,22.55
2017-11-16T01:05:41.992Z,23.50
2017-11-16T01:08:12.032Z,22.20
2017-11-16T01:10:41.276Z,23.02
2017-11-16T01:13:10.523Z,22.30
2017-11-16T01:15:40.788Z,21.48
2017-11-16T01:18:10.032Z,23.85
2017-11-16T01:20:39.323Z,22.00
2017-11-16T01:23:08.592Z,21.73
2017-11-16T01:25:38.416Z,20.60
2017-11-16T01:28:07.697Z,24.27
2017-11-16T01:30:36.960Z,23.90
2017-11-16T01:33:06.992Z,23.85
2017-11-16T01:35:36.243Z,23.55
2017-11-16T01:38:05.483Z,24.33
2017-11-16T01:40:35.535Z,22.60
2017-11-16T01:43:04.769Z,22.90
2017-11-16T01:45:34.009Z,24.02
2017-11-16T01:48:03.303Z,23.73
2017-11-16T01:50:33.298Z,25.70
2017-11-16T01:53:02.575Z,22.70
2017-11-16T01:55:31.804Z,22.95
2017-11-16T01:58:01.861Z,22.77
2017-11-16T02:03:50.400Z,22.83
2017-11-16T02:06:21.065Z,23.80
2017-11-16T02:08:51.525Z,23.87
2017-11-16T02:11:23.187Z,23.65
2017-11-16T02:13:55.648Z,23.85
2017-11-16T02:16:26.496Z,23.62
2017-11-16T02:18:57.607Z,22.45
2017-11-16T02:21:27.555Z,23.92
2017-11-16T02:23:58.505Z,25.65
2017-11-16T02:26:32.886Z,23.55
2017-11-16T02:29:02.528Z,24.87
2017-11-16T02:31:32.807Z,26.45
2017-11-16T02:34:03.869Z,24.52
2017-11-16T02:36:34.449Z,23.23
2017-11-16T02:39:04.021Z,22.08
2017-11-16T02:41:33.552Z,24.75
2017-11-16T02:44:03.682Z,23.73
2017-11-16T02:46:35.747Z,23.08
2017-11-16T02:49:08.076Z,23.98
2017-11-16T02:51:38.649Z,22.95
2017-11-16T02:54:09.839Z,23.65
2017-11-16T02:56:39.823Z,22.65
2017-11-16T02:59:09.861Z,22.05
2017-11-16T03:01:40.517Z,22.65
2017-11-16T03:04:10.486Z,21.95
2017-11-16T03:06:41.260Z,25.23
2017-11-16T03:09:10.994Z,22.25
2017-11-16T03:11:40.996Z,23.38
2017-11-16T03:14:10.830Z,22.73
2017-11-16T03:16:41.238Z,24.63
2017-11-16T03:19:11.037Z,23.38
2017-11-16T03:21:40.855Z,24.12
2017-11-16T03:24:11.933Z,23.02
2017-11-16T03:26:42.305Z,23.25
2017-11-16T03:29:11.873Z,23.35
2017-11-16T03:31:41.637Z,23.40
2017-11-16T03:34:11.444Z,23.98
2017-11-16T03:36:41.965Z,25.67
2017-11-16T03:39:12.956Z,24.45
2017-11-16T03:41:42.975Z,22.27
2017-11-16T03:44:14.622Z,23.62
2017-11-16T03:47:01.407Z,25.48
2017-11-16T03:49:31.068Z,22.83
2017-11-16T03:52:02.024Z,24.58
2017-11-16T03:54:31.897Z,23.90
2017-11-16T03:57:05.624Z,24.50
2017-11-16T03:59:35.395Z,24.08
2017-11-16T04:02:05.162Z,23.27
2017-11-16T04:04:36.175Z,22.90
2017-11-16T04:07:06.139Z,23.85
2017-11-16T04:09:36.857Z,23.80
2017-11-16T04:12:06.672Z,23.15
2017-11-16T04:14:39.331Z,22.85
2017-11-16T04:17:09.099Z,24.12
2017-11-16T04:19:39.195Z,23.02
2017-11-16T04:22:10.425Z,24.42
2017-11-16T04:24:39.951Z,24.73
2017-11-16T04:27:13.640Z,22.20
2017-11-16T04:29:44.185Z,24.25
2017-11-16T04:32:15.517Z,23.70
2017-11-16T04:34:45.303Z,23.02
2017-11-16T04:37:18.136Z,22.40
2017-11-16T04:39:54.935Z,24.75
2017-11-16T04:42:26.246Z,21.20
2017-11-16T04:44:55.995Z,23.15
2017-11-16T04:47:28.773Z,23.60
2017-11-16T04:49:59.128Z,24.12
2017-11-16T04:52:37.779Z,22.35
2017-11-16T04:55:18.237Z,22.45
2017-11-16T04:57:52.510Z,23.50
2017-11-16T05:00:24.741Z,23.50
2017-11-16T05:02:55.745Z,22.80
2017-11-16T05:05:26.980Z,22.17
2017-11-16T05:07:57.809Z,22.55
2017-11-16T05:10:29.483Z,22.95
2017-11-16T05:13:01.710Z,22.83
2017-11-16T05:19:00.754Z,21.02
2017-11-16T05:21:30.244Z,22.55
2017-11-16T05:24:00.037Z,19.20
2017-11-16T05:26:30.576Z,21.33
2017-11-16T05:29:01.050Z,20.12
2017-11-16T05:31:30.758Z,22.45
2017-11-16T05:34:00.368Z,20.40
2017-11-16T05:36:30.132Z,19.85
2017-11-16T05:38:59.559Z,20.40
2017-11-16T05:41:29.521Z,18.70
2017-11-16T05:43:59.870Z,18.40
2017-11-16T05:46:29.465Z,19.50
2017-11-16T05:49:01.059Z,19.87
2017-11-16T05:54:10.446Z,18.15
2017-11-16T05:59:24.121Z,18.37
2017-11-16T06:02:05.159Z,20.02
2017-11-16T06:07:46.387Z,18.67
2017-11-16T06:10:15.676Z,17.92
2017-11-16T06:12:44.918Z,18.90
2017-11-16T06:15:14.167Z,19.08
2017-11-16T06:17:43.439Z,22.77
2017-11-16T06:20:12.687Z,18.40
2017-11-16T06:22:44.939Z,16.65
2017-11-16T06:25:14.172Z,17.10
2017-11-16T06:27:44.248Z,17.45
2017-11-16T06:30:13.481Z,17.45
2017-11-16T06:32:43.507Z,20.60
2017-11-16T06:35:12.753Z,16.75
2017-11-16T06:37:42.037Z,17.50
2017-11-16T06:40:11.284Z,19.33
2017-11-16T06:42:40.519Z,19.02
2017-11-16T06:45:09.784Z,18.02
2017-11-16T06:47:39.021Z,18.23
2017-11-16T06:50:08.247Z,17.05
2017-11-16T06:52:37.505Z,16.83
2017-11-16T06:55:06.748Z,17.73
2017-11-16T06:57:36.026Z,17.70
2017-11-16T07:00:05.291Z,18.40
2017-11-16T07:02:35.416Z,16.67
2017-11-16T07:05:05.412Z,15.52
2017-11-16T07:07:34.684Z,16.10
2017-11-16T07:10:03.940Z,16.77
2017-11-16T07:12:33.986Z,15.57
2017-11-16T07:15:03.356Z,16.05
2017-11-16T07:17:33.362Z,16.50
2017-11-16T07:20:02.634Z,16.12
2017-11-16T07:22:31.864Z,16.95
2017-11-16T07:25:01.157Z,18.90
2017-11-16T07:27:30.533Z,16.87
2017-11-16T07:29:59.781Z,15.15
2017-11-16T07:32:29.837Z,15.70
2017-11-16T07:34:59.071Z,15.65
2017-11-16T07:37:28.321Z,16.48
2017-11-16T07:39:57.602Z,16.75
2017-11-16T07:42:26.840Z,14.48
2017-11-16T07:44:56.091Z,15.13
2017-11-16T07:47:26.130Z,14.65
2017-11-16T07:49:56.167Z,14.55
2017-11-16T07:52:25.482Z,15.60
2017-11-16T07:54:54.708Z,13.75
2017-11-16T07:57:24.068Z,15.35
2017-11-16T07:59:53.513Z,15.98
2017-11-16T08:02:22.717Z,17.55
2017-11-16T08:04:51.964Z,18.17
2017-11-16T08:07:21.251Z,15.55
2017-11-16T08:09:50.497Z,15.30
2017-11-16T08:12:20.396Z,14.68
2017-11-16T08:14:49.726Z,15.40
2017-11-16T08:17:20.297Z,15.55
2017-11-16T08:19:49.621Z,15.27
2017-11-16T08:22:18.959Z,17.27
2017-11-16T08:24:48.197Z,16.75
2017-11-16T08:27:17.492Z,17.73
2017-11-16T08:29:46.741Z,18.37
2017-11-16T08:32:15.996Z,16.08
2017-11-16T08:34:45.305Z,14.75
2017-11-16T08:37:14.690Z,17.23
2017-11-16T08:39:44.754Z,15.60
2017-11-16T08:42:14.018Z,14.25
2017-11-16T08:44:43.265Z,16.30
2017-11-16T08:47:12.504Z,15.57
2017-11-16T08:49:41.959Z,16.80
2017-11-16T08:52:11.213Z,15.40
2017-11-16T08:54:41.265Z,14.60
2017-11-16T08:57:10.496Z,17.02
2017-11-16T08:59:39.759Z,17.02
2017-11-16T09:02:09.007Z,15.13
2017-11-16T09:04:38.243Z,14.60
2017-11-16T09:07:07.480Z,14.90
2017-11-16T09:09:36.748Z,16.05
2017-11-16T09:12:05.979Z,15.90
2017-11-16T09:14:35.250Z,16.12
2017-11-16T09:17:04.491Z,17.27
2017-11-16T09:19:33.728Z,15.48
2017-11-16T09:22:03.011Z,14.75
2017-11-16T09:24:32.245Z,16.58
2017-11-16T09:27:01.476Z,15.38
2017-11-16T09:29:30.753Z,15.68
2017-11-16T09:32:00.755Z,16.33
2017-11-16T09:34:30.012Z,14.85
2017-11-16T09:36:59.259Z,15.23
2017-11-16T09:39:28.498Z,15.85
2017-11-16T09:41:57.761Z,14.18
2017-11-16T09:44:27.002Z,13.98
2017-11-16T09:46:56.252Z,14.20
2017-11-16T09:49:25.548Z,14.27
2017-11-16T09:51:54.783Z,13.13
2017-11-16T09:54:24.039Z,12.45
2017-11-16T09:56:53.288Z,11.80
2017-11-16T09:59:22.537Z,13.88
2017-11-16T10:01:52.593Z,13.05
2017-11-16T10:04:21.872Z,13.32
2017-11-16T10:06:51.116Z,13.20
2017-11-16T10:09:20.405Z,13.77
2017-11-16T10:11:49.647Z,12.70
2017-11-16T10:14:19.692Z,12.80
2017-11-16T10:16:49.692Z,14.18
2017-11-16T10:19:19.739Z,13.45
2017-11-16T10:21:48.988Z,13.35
2017-11-16T10:24:18.221Z,14.50
2017-11-16T10:26:47.472Z,13.57
2017-11-16T10:29:16.763Z,12.70
2017-11-16T10:31:46.012Z,14.60
2017-11-16T10:34:16.029Z,13.18
2017-11-16T10:36:46.082Z,14.93
2017-11-16T10:39:15.333Z,15.15
2017-11-16T10:41:45.376Z,13.20
2017-11-16T10:44:14.621Z,12.57
2017-11-16T10:46:43.867Z,13.25
2017-11-16T10:49:13.136Z,11.43
2017-11-16T10:51:42.384Z,13.88
2017-11-16T10:54:11.634Z,14.80
2017-11-16T10:56:40.916Z,13.30
2017-11-16T10:59:10.167Z,12.02
2017-11-16T11:01:40.231Z,14.75
2017-11-16T11:04:09.483Z,12.10
2017-11-16T11:06:39.519Z,13.43
2017-11-16T11:09:08.758Z,13.60
2017-11-16T11:11:37.996Z,13.70
2017-11-16T11:14:08.026Z,14.57
2017-11-16T11:16:37.269Z,13.23
2017-11-16T11:19:06.510Z,13.60
2017-11-16T11:21:36.563Z,12.98
2017-11-16T11:24:05.817Z,12.25
2017-11-16T11:26:35.077Z,13.00
2017-11-16T11:29:04.380Z,12.85
2017-11-16T11:31:33.644Z,12.37
2017-11-16T11:34:03.666Z,14.40
2017-11-16T11:36:32.991Z,13.15
2017-11-16T11:39:02.238Z,13.43
2017-11-16T11:41:31.478Z,14.32
2017-11-16T11:44:00.766Z,13.45
2017-11-16T11:46:30.008Z,12.45
2017-11-16T11:48:59.249Z,12.18
2017-11-16T11:51:28.657Z,13.27
2017-11-16T11:53:58.659Z,13.80
2017-11-16T11:56:28.280Z,14.00
2017-11-16T11:58:58.331Z,15.02
2017-11-16T12:01:28.352Z,16.98
2017-11-16T12:03:59.641Z,14.57
2017-11-16T12:06:30.754Z,14.15
2017-11-16T12:09:00.307Z,13.55
2017-11-16T12:11:30.674Z,12.88
2017-11-16T12:14:00.512Z,13.32
2017-11-16T12:16:31.532Z,13.80
2017-11-16T12:19:02.401Z,14.73
2017-11-16T12:21:33.988Z,12.45
2017-11-16T12:24:03.882Z,13.68
2017-11-16T12:26:34.040Z,13.35
2017-11-16T12:29:03.298Z,13.52
2017-11-16T12:31:34.880Z,13.38
2017-11-16T12:34:05.398Z,12.75
2017-11-16T12:36:35.805Z,13.23
2017-11-16T12:39:05.736Z,15.18
2017-11-16T12:41:35.786Z,13.82
2017-11-16T12:44:07.254Z,13.10
2017-11-16T12:46:37.183Z,15.70
2017-11-16T12:49:08.777Z,13.57
2017-11-16T12:51:38.910Z,14.38
2017-11-16T12:54:08.547Z,14.73
2017-11-16T12:56:38.837Z,15.25
2017-11-16T12:59:09.009Z,13.15
2017-11-16T13:01:39.095Z,14.13
2017-11-16T13:04:09.004Z,13.18
2017-11-16T13:06:40.181Z,15.82
2017-11-16T13:09:12.307Z,13.90
2017-11-16T13:11:45.942Z,13.82
2017-11-16T13:14:15.193Z,14.35
2017-11-16T13:16:44.485Z,15.43
2017-11-16T13:19:13.799Z,14.68
2017-11-16T13:21:43.874Z,13.60
2017-11-16T13:24:13.099Z,13.80
2017-11-16T13:26:43.940Z,14.23
2017-11-16T13:29:13.185Z,15.27
2017-11-16T13:31:42.521Z,13.82
2017-11-16T13:34:11.795Z,13.45
2017-11-16T13:36:41.052Z,14.52
2017-11-16T13:39:10.307Z,13.50
2017-11-16T13:41:39.588Z,14.60
2017-11-16T13:44:08.837Z,14.35
2017-11-16T13:46:38.085Z,14.68
2017-11-16T13:49:07.369Z,14.07
2017-11-16T13:51:36.672Z,14.27
2017-11-16T13:54:06.716Z,14.07
2017-11-16T13:56:35.960Z,15.82
2017-11-16T13:59:05.281Z,14.52
2017-11-16T14:01:34.577Z,13.98
2017-11-16T14:04:03.852Z,13.45
2017-11-16T14:06:33.102Z,13.30
2017-11-16T14:09:03.157Z,12.70
2017-11-16T14:11:32.404Z,14.57
2017-11-16T14:14:02.436Z,14.45
2017-11-16T14:16:32.450Z,14.02
2017-11-16T14:19:02.481Z,14.48
2017-11-16T14:21:31.757Z,14.68
2017-11-16T14:24:01.021Z,13.93
2017-11-16T14:26:30.270Z,12.95
2017-11-16T14:29:00.283Z,14.18
2017-11-16T14:31:30.300Z,15.25
2017-11-16T14:34:00.365Z,13.77
2017-11-16T14:36:29.604Z,15.52
2017-11-16T14:38:58.864Z,14.10
2017-11-16T14:41:28.129Z,15.45
2017-11-16T14:43:57.384Z,16.12
2017-11-16T14:46:26.665Z,13.80
2017-11-16T14:48:55.952Z,15.38
2017-11-16T14:51:25.200Z,14.02
2017-11-16T14:53:54.444Z,15.35
2017-11-16T14:56:23.737Z,14.18
2017-11-16T14:58:52.981Z,14.00
2017-11-16T15:01:22.269Z,13.80
2017-11-16T15:03:51.555Z,12.85
2017-11-16T15:06:20.801Z,14.57
2017-11-16T15:08:50.052Z,13.77
2017-11-16T15:11:19.323Z,13.20
2017-11-16T15:13:49.328Z,13.75
2017-11-16T15:16:19.368Z,13.38
2017-11-16T15:18:49.418Z,13.48
2017-11-16T15:21:18.657Z,14.52
2017-11-16T15:23:47.937Z,13.52
2017-11-16T15:26:17.174Z,13.43
2017-11-16T15:28:47.224Z,14.40
2017-11-16T15:31:16.470Z,15.25
2017-11-16T15:33:45.709Z,15.02
2017-11-16T15:36:14.984Z,13.15
2017-11-16T15:38:45.091Z,13.80
2017-11-16T15:41:14.360Z,12.82
2017-11-16T15:43:43.639Z,12.57
2017-11-16T15:46:12.896Z,13.40
2017-11-16T15:48:42.140Z,13.52
2017-11-16T15:51:11.397Z,13.43
2017-11-16T15:53:40.701Z,14.45
2017-11-16T15:56:09.949Z,14.30
2017-11-16T15:58:39.799Z,14.30
2017-11-16T16:01:09.059Z,14.35
2017-11-16T16:03:38.312Z,14.23
2017-11-16T16:06:07.608Z,13.57
2017-11-16T16:08:36.856Z,13.27
2017-11-16T16:11:06.114Z,12.95
2017-11-16T16:13:36.154Z,13.77
2017-11-16T16:16:05.422Z,12.82
2017-11-16T16:18:34.668Z,13.35
2017-11-16T16:21:03.924Z,14.50
2017-11-16T16:23:33.244Z,15.73
2017-11-16T16:26:02.491Z,13.27
2017-11-16T16:28:31.720Z,13.88
2017-11-16T16:31:01.020Z,13.27
2017-11-16T16:33:30.257Z,14.40
2017-11-16T16:36:00.360Z,13.43
2017-11-16T16:38:29.601Z,12.77
2017-11-16T16:40:58.898Z,13.60
2017-11-16T16:43:28.169Z,13.90
2017-11-16T16:45:58.179Z,13.10
2017-11-16T16:48:28.225Z,13.98
2017-11-16T16:50:57.487Z,13.80
2017-11-16T16:53:26.737Z,11.77
2017-11-16T16:55:56.769Z,13.40
2017-11-16T16:58:26.013Z,14.63
2017-11-16T17:00:56.065Z,15.32
2017-11-16T17:03:25.357Z,13.68
2017-11-16T17:05:54.618Z,15.05
2017-11-16T17:08:23.905Z,14.35
2017-11-16T17:10:56.132Z,15.40
2017-11-16T17:13:26.890Z,14.05
2017-11-16T17:15:56.124Z,14.25
2017-11-16T17:18:25.380Z,15.38
2017-11-16T17:20:54.686Z,16.17
2017-11-16T17:23:23.921Z,15.13
2017-11-16T17:25:53.169Z,14.13
2017-11-16T17:28:22.459Z,16.12
2017-11-16T17:30:51.706Z,17.15
2017-11-16T17:33:20.940Z,16.10
2017-11-16T17:35:51.027Z,14.55
2017-11-16T17:38:20.825Z,13.98
2017-11-16T17:40:50.096Z,14.73
2017-11-16T17:43:19.385Z,16.33
2017-11-16T17:45:49.401Z,15.27
2017-11-16T17:48:19.444Z,15.40
2017-11-16T17:50:48.679Z,17.25
2017-11-16T17:53:19.144Z,15.57
2017-11-16T17:55:49.358Z,17.33
2017-11-16T17:58:18.601Z,13.90
2017-11-16T18:00:47.873Z,16.65
2017-11-16T18:03:17.173Z,15.25
2017-11-16T18:05:46.413Z,15.85
2017-11-16T18:08:16.405Z,17.20
2017-11-16T18:10:45.684Z,16.05
2017-11-16T18:13:15.915Z,15.45
2017-11-16T18:15:47.149Z,16.20
2017-11-16T18:18:16.366Z,14.70
2017-11-16T18:20:45.626Z,16.73
2017-11-16T18:23:14.901Z,16.52
2017-11-16T18:25:44.165Z,15.60
2017-11-16T18:28:13.463Z,13.90
2017-11-16T18:30:43.465Z,16.37
2017-11-16T18:33:13.505Z,14.95
2017-11-16T18:35:42.747Z,15.10
2017-11-16T18:38:11.990Z,15.93
2017-11-16T18:40:41.377Z,15.90
2017-11-16T18:43:11.400Z,15.65
2017-11-16T18:45:40.658Z,15.65
2017-11-16T18:48:09.933Z,15.68
2017-11-16T18:50:39.249Z,15.40
2017-11-16T18:53:08.526Z,16.05
2017-11-16T18:55:38.971Z,17.15
2017-11-16T18:58:09.060Z,16.92
2017-11-16T19:00:39.347Z,16.25
2017-11-16T19:03:08.661Z,14.63
2017-11-16T19:05:37.994Z,17.27
2017-11-16T19:08:08.051Z,15.45
2017-11-16T19:10:37.377Z,16.67
2017-11-16T19:13:06.714Z,16.35
2017-11-16T19:15:36.841Z,15.75
2017-11-16T19:18:06.202Z,17.52
2017-11-16T19:20:35.517Z,17.08
2017-11-16T19:23:04.822Z,16.83
2017-11-16T19:25:34.168Z,17.05
2017-11-16T19:28:03.605Z,16.25
2017-11-16T19:30:33.039Z,17.52
2017-11-16T19:33:03.245Z,16.15
2017-11-16T19:35:32.797Z,16.20
2017-11-16T19:38:02.269Z,17.60
2017-11-16T19:40:32.525Z,17.65
2017-11-16T19:43:01.981Z,16.70
2017-11-16T19:45:31.463Z,18.33
2017-11-16T19:48:01.044Z,15.95
2017-11-16T19:50:30.565Z,16.58
2017-11-16T19:53:00.101Z,17.37
2017-11-16T19:55:29.635Z,16.90
2017-11-16T19:57:59.147Z,17.95
2017-11-16T20:00:28.698Z,16.98
2017-11-16T20:02:58.250Z,16.35
2017-11-16T20:05:27.874Z,16.20
2017-11-16T20:07:57.412Z,15.65
2017-11-16T20:10:26.945Z,16.58
2017-11-16T20:12:56.512Z,15.43
2017-11-16T20:15:26.044Z,16.98
2017-11-16T20:17:55.626Z,15.70
2017-11-16T20:20:25.133Z,16.58
2017-11-16T20:22:54.727Z,15.55
2017-11-16T20:25:24.975Z,16.23
2017-11-16T20:27:54.561Z,18.80
2017-11-16T20:30:24.049Z,18.48
2017-11-16T20:32:54.346Z,18.37
2017-11-16T20:35:23.810Z,17.83
2017-11-16T20:37:57.633Z,17.35
2017-11-16T20:40:32.377Z,16.80
2017-11-16T20:43:07.189Z,17.40
2017-11-16T20:45:41.959Z,18.05
2017-11-16T20:48:21.200Z,16.02
2017-11-16T20:54:09.584Z,16.17
2017-11-16T20:56:38.863Z,17.12
2017-11-16T20:59:08.177Z,15.38
2017-11-16T21:01:38.214Z,16.77
2017-11-16T21:04:07.486Z,16.25
2017-11-16T21:06:36.767Z,17.45
2017-11-16T21:09:06.177Z,16.90
2017-11-16T21:11:35.417Z,17.08
2017-11-16T21:14:04.662Z,16.73
2017-11-16T21:16:33.937Z,18.05
2017-11-16T21:19:03.191Z,16.37
2017-11-16T21:21:32.428Z,16.65
2017-11-16T21:24:01.723Z,18.48
2017-11-16T21:26:30.978Z,19.00
2017-11-16T21:29:00.333Z,16.23
2017-11-16T21:31:29.593Z,15.95
2017-11-16T21:33:59.613Z,19.00
2017-11-16T21:36:28.871Z,18.35
2017-11-16T21:38:58.114Z,18.58
2017-11-16T21:41:28.151Z,19.50
2017-11-16T21:43:57.391Z,18.25
2017-11-16T21:46:26.640Z,17.75
2017-11-16T21:48:56.166Z,20.70
2017-11-16T21:51:25.617Z,19.45
2017-11-16T21:53:54.972Z,20.12
2017-11-16T21:56:24.955Z,18.80
2017-11-16T21:58:54.961Z,21.50
2017-11-16T22:01:24.246Z,17.75
2017-11-16T22:03:53.481Z,21.20
2017-11-16T22:06:22.744Z,21.15
2017-11-16T22:08:52.099Z,19.50
2017-11-16T22:11:22.874Z,21.70
2017-11-16T22:13:52.201Z,19.83
2017-11-16T22:16:22.219Z,22.35
2017-11-16T22:18:51.463Z,22.30
2017-11-16T22:21:20.746Z,19.98
2017-11-16T22:23:50.047Z,19.80
2017-11-16T22:26:20.110Z,19.90
2017-11-16T22:28:49.331Z,19.50
2017-11-16T22:31:18.569Z,20.90
2017-11-16T22:33:47.839Z,19.48
2017-11-16T22:36:17.095Z,18.58
2017-11-16T22:38:46.333Z,21.10
2017-11-16T22:41:15.601Z,20.90
2017-11-16T22:43:44.846Z,20.23
2017-11-16T22:46:14.069Z,18.95
2017-11-16T22:48:43.365Z,21.08
2017-11-16T22:51:12.608Z,18.92
2017-11-16T22:53:41.848Z,20.58
2017-11-16T22:56:11.906Z,20.52
2017-11-16T22:58:41.192Z,22.02
2017-11-16T23:01:10.451Z,21.75
2017-11-16T23:03:39.762Z,22.60
2017-11-16T23:06:08.993Z,23.83
2017-11-16T23:08:38.237Z,20.15
2017-11-16T23:11:07.503Z,22.20
2017-11-16T23:13:37.439Z,21.30
2017-11-16T23:16:06.705Z,21.60
2017-11-16T23:18:35.987Z,23.35
2017-11-16T23:21:06.000Z,20.37
2017-11-16T23:23:36.057Z,21.30
2017-11-16T23:26:05.299Z,21.85
2017-11-16T23:28:34.530Z,23.80
2017-11-16T23:31:03.805Z,23.55
2017-11-16T23:33:33.057Z,24.83
2017-11-16T23:36:02.289Z,21.45
2017-11-16T23:38:31.580Z,22.62
2017-11-16T23:41:00.818Z,21.40
2017-11-16T23:43:30.832Z,21.02
2017-11-16T23:46:00.127Z,24.50
2017-11-16T23:48:30.134Z,23.85
2017-11-16T23:50:59.484Z,23.10
2017-11-16T23:53:28.761Z,21.37
2017-11-16T23:55:58.002Z,22.70
2017-11-16T23:58:27.245Z,23.55
